Clifton, Texas
Current Conditions -  °F | °C
As of 11:51 PM on Thursday 30 Oct 2014 (Local Time) from KACT Reporting Station
Overcast Overcast  
Wind Chill: 66°   Ceiling: 5500
Heat Index: 66°   Visibility: 10mi
Dew Point: 56°   Wind: 6mph
Humidity: 70%   Direction: 330°NNW
Pressure: 30.15"   Gusts: NA
Location:  31.78°N, 97.58°W
Report Text: KACT 310451Z 33005KT 10SM FEW046 OVC055 19/13 A3015 RMK AO2 SLP204 T01890133
Loading
Personal Weather Stations






























Interactive Weather Map
Tropical Storm Tracking
New forecast layout! Learn more

10-Day Weather Forecast

Advertisements
Track Severe Weather on mobile